Aérodrome :
LOGIN :

S'inscrire | Disclaimer

   EN    FR    IT 

 










Légende :    VFR   VFR Marginal   IFR   IFR Intensif   IFR Très Intensif
Visi : 
Plafond : 
>= 8 km
>= 3000ft
5 à 8 km
1000 à 3000 ft
1500m à 5 km
500 à 1000 ft
800 à 1500m
200 à 500 ft
< 800m
< 200 ft
Symboles :   Orages  Brouillard  Fortes neiges  Fortes précipitations  Vent > 20 kt
SIGMETs :   Divers  Orages  Givrage  Turbulence  Onde Orograph.  Cendres Volcan.







- Altitude de l'aérodrome : 776 ft
- Code IATA : RMS


ETAR - Ramstein Air Base

DERNIER METAR :
  • 210956Z AUTO 06009KT 9999 CLR 12/M02 A3053 RMK AO2 SLP350 T01181021 $

METARs EXPIRÉS :
  • 210856Z AUTO 00000KT 9999 CLR 08/M01 A3054 RMK AO2 SLP355 T00831012 $
  • 210756Z 00000KT 9999 CLR 04/M01 A3055 RMK AO2A SLP359 T00441014 $
  • 210656Z COR 00000KT 9999 CLR M04/M05 A3054 RMK AO2 SLP360 RVRNO PWINO $ COR 0657

TAF TAF ETAR
Valide du 21 à 02h jusqu'au 22 à 08h UTC


210159Z 2102/2208 VRB06KT 9999 SKC QNH3053INS
BECMG 2109/2110 07009KT 9999 SKC QNH3056INS
BECMG 2117/2118 VRB06KT 9999 SKC QNH3049INS TX13/2114Z TNM04/2105Z
Pas de NOTAMs connus pour ce terrain.



MET'MAP, la Météo Aéronautique d'un coup d'oeil ! - Copyright ORBIFLY Décembre 2007 - Disclaimer

ORBIFLY MET'MAP TEAM :

Programmation & Développement : Alexandra Zaïnal
Conception & Développement : Baudouin d'Aumeries
Co-Programmation & Développement : Marc-Olivier Méhu
Soutien technique & logistique : Manuel Goepfert

Contact : metmap@orbifly.com




SOURCES & CREDITS :

   NOAA